sensor_id;sensor_type;location;lat;lon;timestamp;P1;durP1;ratioP1;P2;durP2;ratioP2
17858;SDS011;35426;30.698;104.050;2023-06-26T00:02:14;66.53;;;45.67;;
17858;SDS011;35426;30.698;104.050;2023-06-26T00:04:47;72.03;;;50.70;;
17858;SDS011;35426;30.698;104.050;2023-06-26T00:07:25;79.55;;;48.45;;
17858;SDS011;35426;30.698;104.050;2023-06-26T00:10:00;77.15;;;50.35;;
17858;SDS011;35426;30.698;104.050;2023-06-26T00:12:34;75.22;;;48.35;;
17858;SDS011;35426;30.698;104.050;2023-06-26T00:15:07;74.45;;;48.65;;
17858;SDS011;35426;30.698;104.050;2023-06-26T00:17:42;82.25;;;51.42;;
17858;SDS011;35426;30.698;104.050;2023-06-26T00:20:15;79.57;;;51.13;;
17858;SDS011;35426;30.698;104.050;2023-06-26T00:22:51;83.28;;;50.45;;
17858;SDS011;35426;30.698;104.050;2023-06-26T00:25:28;83.72;;;50.67;;
17858;SDS011;35426;30.698;104.050;2023-06-26T00:28:01;82.57;;;50.78;;
17858;SDS011;35426;30.698;104.050;2023-06-26T00:30:38;83.93;;;50.00;;
17858;SDS011;35426;30.698;104.050;2023-06-26T00:33:11;82.07;;;52.55;;
17858;SDS011;35426;30.698;104.050;2023-06-26T00:35:45;82.60;;;52.17;;
17858;SDS011;35426;30.698;104.050;2023-06-26T00:38:21;76.85;;;49.20;;
17858;SDS011;35426;30.698;104.050;2023-06-26T00:40:55;85.20;;;52.42;;
17858;SDS011;35426;30.698;104.050;2023-06-26T00:43:29;86.03;;;52.08;;
17858;SDS011;35426;30.698;104.050;2023-06-26T00:46:03;82.97;;;50.20;;
17858;SDS011;35426;30.698;104.050;2023-06-26T00:48:42;76.95;;;48.25;;
17858;SDS011;35426;30.698;104.050;2023-06-26T00:51:19;84.88;;;52.30;;
17858;SDS011;35426;30.698;104.050;2023-06-26T00:53:54;82.93;;;51.25;;
17858;SDS011;35426;30.698;104.050;2023-06-26T00:56:29;84.28;;;50.20;;
17858;SDS011;35426;30.698;104.050;2023-06-26T00:59:05;81.55;;;54.63;;
17858;SDS011;35426;30.698;104.050;2023-06-26T01:01:39;77.93;;;49.22;;
17858;SDS011;35426;30.698;104.050;2023-06-26T01:04:12;76.13;;;48.03;;
17858;SDS011;35426;30.698;104.050;2023-06-26T01:06:48;78.78;;;50.45;;
17858;SDS011;35426;30.698;104.050;2023-06-26T01:09:26;80.45;;;49.65;;
17858;SDS011;35426;30.698;104.050;2023-06-26T01:12:02;73.03;;;50.72;;
17858;SDS011;35426;30.698;104.050;2023-06-26T01:14:36;77.10;;;47.35;;
17858;SDS011;35426;30.698;104.050;2023-06-26T01:17:10;77.00;;;49.85;;
17858;SDS011;35426;30.698;104.050;2023-06-26T01:19:45;82.30;;;51.63;;
17858;SDS011;35426;30.698;104.050;2023-06-26T01:22:23;70.85;;;43.38;;
17858;SDS011;35426;30.698;104.050;2023-06-26T01:25:07;70.00;;;45.53;;
17858;SDS011;35426;30.698;104.050;2023-06-26T01:27:50;62.78;;;42.92;;
17858;SDS011;35426;30.698;104.050;2023-06-26T01:30:27;70.40;;;44.35;;
17858;SDS011;35426;30.698;104.050;2023-06-26T01:33:03;60.75;;;39.33;;
17858;SDS011;35426;30.698;104.050;2023-06-26T01:35:36;73.03;;;48.60;;
17858;SDS011;35426;30.698;104.050;2023-06-26T01:38:13;68.68;;;45.78;;
17858;SDS011;35426;30.698;104.050;2023-06-26T01:40:48;74.35;;;46.25;;
17858;SDS011;35426;30.698;104.050;2023-06-26T01:43:24;76.10;;;50.33;;
17858;SDS011;35426;30.698;104.050;2023-06-26T01:46:02;75.38;;;48.47;;
17858;SDS011;35426;30.698;104.050;2023-06-26T01:48:40;75.45;;;50.42;;
17858;SDS011;35426;30.698;104.050;2023-06-26T01:51:19;85.65;;;51.83;;
17858;SDS011;35426;30.698;104.050;2023-06-26T01:53:57;77.03;;;47.40;;
17858;SDS011;35426;30.698;104.050;2023-06-26T01:56:31;81.72;;;52.38;;
17858;SDS011;35426;30.698;104.050;2023-06-26T01:59:10;80.43;;;49.35;;
17858;SDS011;35426;30.698;104.050;2023-06-26T02:01:44;84.68;;;52.85;;
17858;SDS011;35426;30.698;104.050;2023-06-26T02:04:17;80.22;;;50.50;;
17858;SDS011;35426;30.698;104.050;2023-06-26T02:06:50;73.18;;;45.60;;
17858;SDS011;35426;30.698;104.050;2023-06-26T02:09:25;76.72;;;49.17;;
17858;SDS011;35426;30.698;104.050;2023-06-26T02:11:58;76.28;;;50.08;;
17858;SDS011;35426;30.698;104.050;2023-06-26T02:14:33;82.70;;;53.40;;
17858;SDS011;35426;30.698;104.050;2023-06-26T02:17:07;74.93;;;47.13;;
17858;SDS011;35426;30.698;104.050;2023-06-26T02:19:41;81.32;;;51.05;;
17858;SDS011;35426;30.698;104.050;2023-06-26T02:22:16;84.05;;;48.47;;
17858;SDS011;35426;30.698;104.050;2023-06-26T02:24:49;89.00;;;52.65;;
17858;SDS011;35426;30.698;104.050;2023-06-26T02:27:23;71.75;;;48.80;;
17858;SDS011;35426;30.698;104.050;2023-06-26T02:29:58;77.15;;;49.35;;
17858;SDS011;35426;30.698;104.050;2023-06-26T02:32:32;81.03;;;52.85;;
17858;SDS011;35426;30.698;104.050;2023-06-26T02:35:07;76.60;;;51.40;;
17858;SDS011;35426;30.698;104.050;2023-06-26T02:37:46;88.63;;;54.25;;
17858;SDS011;35426;30.698;104.050;2023-06-26T02:40:20;81.43;;;51.67;;
17858;SDS011;35426;30.698;104.050;2023-06-26T02:42:54;84.32;;;51.40;;
17858;SDS011;35426;30.698;104.050;2023-06-26T02:45:30;82.47;;;51.58;;
17858;SDS011;35426;30.698;104.050;2023-06-26T02:48:03;99.25;;;55.42;;
17858;SDS011;35426;30.698;104.050;2023-06-26T02:50:37;77.63;;;48.05;;
17858;SDS011;35426;30.698;104.050;2023-06-26T02:53:13;92.63;;;53.40;;
17858;SDS011;35426;30.698;104.050;2023-06-26T02:55:47;81.90;;;49.78;;
17858;SDS011;35426;30.698;104.050;2023-06-26T02:58:21;83.68;;;50.75;;
17858;SDS011;35426;30.698;104.050;2023-06-26T03:00:57;74.97;;;49.80;;
17858;SDS011;35426;30.698;104.050;2023-06-26T03:03:31;88.72;;;51.42;;
17858;SDS011;35426;30.698;104.050;2023-06-26T03:06:16;92.22;;;54.03;;
17858;SDS011;35426;30.698;104.050;2023-06-26T03:08:51;81.32;;;50.80;;
17858;SDS011;35426;30.698;104.050;2023-06-26T03:11:25;79.65;;;49.90;;
17858;SDS011;35426;30.698;104.050;2023-06-26T03:13:59;76.60;;;50.47;;
17858;SDS011;35426;30.698;104.050;2023-06-26T03:16:35;77.43;;;50.53;;
17858;SDS011;35426;30.698;104.050;2023-06-26T03:19:08;80.05;;;49.75;;
17858;SDS011;35426;30.698;104.050;2023-06-26T03:22:11;74.45;;;45.53;;
17858;SDS011;35426;30.698;104.050;2023-06-26T03:24:45;74.05;;;46.33;;
17858;SDS011;35426;30.698;104.050;2023-06-26T03:27:19;80.80;;;50.92;;
17858;SDS011;35426;30.698;104.050;2023-06-26T03:29:52;82.18;;;49.08;;
17858;SDS011;35426;30.698;104.050;2023-06-26T03:32:28;71.78;;;45.90;;
17858;SDS011;35426;30.698;104.050;2023-06-26T03:35:02;70.00;;;45.10;;
17858;SDS011;35426;30.698;104.050;2023-06-26T03:37:36;74.75;;;48.33;;
17858;SDS011;35426;30.698;104.050;2023-06-26T03:40:11;78.80;;;48.33;;
17858;SDS011;35426;30.698;104.050;2023-06-26T03:42:45;70.45;;;46.92;;
17858;SDS011;35426;30.698;104.050;2023-06-26T03:45:19;71.30;;;48.17;;
17858;SDS011;35426;30.698;104.050;2023-06-26T03:47:56;80.50;;;50.92;;
17858;SDS011;35426;30.698;104.050;2023-06-26T03:50:32;71.35;;;47.75;;
17858;SDS011;35426;30.698;104.050;2023-06-26T03:53:07;77.63;;;49.25;;
17858;SDS011;35426;30.698;104.050;2023-06-26T03:55:40;90.47;;;56.40;;
17858;SDS011;35426;30.698;104.050;2023-06-26T03:58:14;65.35;;;41.90;;
17858;SDS011;35426;30.698;104.050;2023-06-26T04:00:48;74.93;;;47.88;;
17858;SDS011;35426;30.698;104.050;2023-06-26T04:03:24;75.68;;;49.30;;
17858;SDS011;35426;30.698;104.050;2023-06-26T04:05:58;63.85;;;44.92;;
17858;SDS011;35426;30.698;104.050;2023-06-26T04:08:32;69.53;;;44.97;;
17858;SDS011;35426;30.698;104.050;2023-06-26T04:11:06;59.70;;;42.00;;
17858;SDS011;35426;30.698;104.050;2023-06-26T04:13:41;73.00;;;46.47;;
17858;SDS011;35426;30.698;104.050;2023-06-26T04:16:15;58.80;;;39.80;;
17858;SDS011;35426;30.698;104.050;2023-06-26T04:18:50;63.15;;;41.65;;
17858;SDS011;35426;30.698;104.050;2023-06-26T04:21:25;68.30;;;45.33;;
17858;SDS011;35426;30.698;104.050;2023-06-26T04:23:59;85.78;;;46.58;;
17858;SDS011;35426;30.698;104.050;2023-06-26T04:26:33;65.13;;;42.70;;
17858;SDS011;35426;30.698;104.050;2023-06-26T04:29:07;70.63;;;46.40;;
17858;SDS011;35426;30.698;104.050;2023-06-26T04:31:41;80.05;;;46.97;;
17858;SDS011;35426;30.698;104.050;2023-06-26T04:34:18;88.85;;;54.70;;
17858;SDS011;35426;30.698;104.050;2023-06-26T04:36:52;74.15;;;48.03;;
17858;SDS011;35426;30.698;104.050;2023-06-26T04:39:26;68.15;;;45.47;;
17858;SDS011;35426;30.698;104.050;2023-06-26T04:42:00;71.65;;;45.60;;
17858;SDS011;35426;30.698;104.050;2023-06-26T04:44:34;74.25;;;48.25;;
17858;SDS011;35426;30.698;104.050;2023-06-26T04:47:08;70.57;;;46.88;;
17858;SDS011;35426;30.698;104.050;2023-06-26T04:49:50;64.18;;;44.08;;
17858;SDS011;35426;30.698;104.050;2023-06-26T04:52:24;62.58;;;41.92;;
17858;SDS011;35426;30.698;104.050;2023-06-26T04:54:57;63.92;;;43.47;;
17858;SDS011;35426;30.698;104.050;2023-06-26T04:57:31;64.05;;;40.58;;
17858;SDS011;35426;30.698;104.050;2023-06-26T05:00:05;59.80;;;40.00;;
17858;SDS011;35426;30.698;104.050;2023-06-26T05:02:42;63.72;;;42.03;;
17858;SDS011;35426;30.698;104.050;2023-06-26T05:05:18;58.80;;;39.42;;
17858;SDS011;35426;30.698;104.050;2023-06-26T05:07:52;61.38;;;40.33;;
17858;SDS011;35426;30.698;104.050;2023-06-26T05:10:26;54.03;;;37.00;;
17858;SDS011;35426;30.698;104.050;2023-06-26T05:13:00;64.45;;;41.88;;
17858;SDS011;35426;30.698;104.050;2023-06-26T05:15:35;52.63;;;34.85;;
17858;SDS011;35426;30.698;104.050;2023-06-26T05:18:09;57.65;;;39.15;;
17858;SDS011;35426;30.698;104.050;2023-06-26T05:20:44;52.63;;;37.42;;
17858;SDS011;35426;30.698;104.050;2023-06-26T05:23:20;56.78;;;38.92;;
17858;SDS011;35426;30.698;104.050;2023-06-26T05:25:57;53.45;;;36.63;;
17858;SDS011;35426;30.698;104.050;2023-06-26T05:28:31;54.28;;;36.78;;
17858;SDS011;35426;30.698;104.050;2023-06-26T05:31:06;60.30;;;38.38;;
17858;SDS011;35426;30.698;104.050;2023-06-26T05:33:40;55.92;;;39.85;;
17858;SDS011;35426;30.698;104.050;2023-06-26T05:36:19;51.88;;;37.08;;
17858;SDS011;35426;30.698;104.050;2023-06-26T05:38:54;60.10;;;41.13;;
17858;SDS011;35426;30.698;104.050;2023-06-26T05:41:28;63.90;;;37.47;;
17858;SDS011;35426;30.698;104.050;2023-06-26T05:44:02;62.25;;;44.20;;
17858;SDS011;35426;30.698;104.050;2023-06-26T05:46:37;60.10;;;41.60;;
17858;SDS011;35426;30.698;104.050;2023-06-26T05:49:12;58.67;;;41.03;;
17858;SDS011;35426;30.698;104.050;2023-06-26T05:51:50;69.03;;;38.10;;
17858;SDS011;35426;30.698;104.050;2023-06-26T05:54:24;49.53;;;33.15;;
17858;SDS011;35426;30.698;104.050;2023-06-26T05:57:00;56.65;;;40.38;;
17858;SDS011;35426;30.698;104.050;2023-06-26T05:59:35;56.83;;;39.50;;
17858;SDS011;35426;30.698;104.050;2023-06-26T06:02:15;54.92;;;36.67;;
17858;SDS011;35426;30.698;104.050;2023-06-26T06:04:49;54.80;;;37.67;;
17858;SDS011;35426;30.698;104.050;2023-06-26T06:07:25;52.80;;;35.03;;
17858;SDS011;35426;30.698;104.050;2023-06-26T06:09:58;53.38;;;32.75;;
17858;SDS011;35426;30.698;104.050;2023-06-26T06:12:32;54.28;;;36.05;;
17858;SDS011;35426;30.698;104.050;2023-06-26T06:15:06;47.08;;;30.88;;
17858;SDS011;35426;30.698;104.050;2023-06-26T06:17:42;43.08;;;32.08;;
17858;SDS011;35426;30.698;104.050;2023-06-26T06:20:16;53.95;;;37.25;;
17858;SDS011;35426;30.698;104.050;2023-06-26T06:22:56;58.50;;;38.95;;
17858;SDS011;35426;30.698;104.050;2023-06-26T06:25:30;54.78;;;37.38;;
17858;SDS011;35426;30.698;104.050;2023-06-26T06:28:04;69.13;;;40.67;;
17858;SDS011;35426;30.698;104.050;2023-06-26T06:30:39;64.65;;;41.75;;
17858;SDS011;35426;30.698;104.050;2023-06-26T06:33:13;60.80;;;39.03;;
17858;SDS011;35426;30.698;104.050;2023-06-26T06:35:47;52.05;;;35.67;;
17858;SDS011;35426;30.698;104.050;2023-06-26T06:38:23;54.35;;;34.65;;
17858;SDS011;35426;30.698;104.050;2023-06-26T06:40:56;61.63;;;36.58;;
17858;SDS011;35426;30.698;104.050;2023-06-26T06:43:29;52.60;;;35.17;;
17858;SDS011;35426;30.698;104.050;2023-06-26T06:46:02;50.45;;;33.47;;
17858;SDS011;35426;30.698;104.050;2023-06-26T06:48:36;45.88;;;34.58;;
17858;SDS011;35426;30.698;104.050;2023-06-26T06:51:09;52.60;;;35.70;;
17858;SDS011;35426;30.698;104.050;2023-06-26T06:53:45;48.90;;;32.20;;
17858;SDS011;35426;30.698;104.050;2023-06-26T06:56:20;53.47;;;33.53;;
17858;SDS011;35426;30.698;104.050;2023-06-26T06:58:54;50.58;;;35.70;;
17858;SDS011;35426;30.698;104.050;2023-06-26T07:01:27;55.25;;;38.47;;
17858;SDS011;35426;30.698;104.050;2023-06-26T07:04:04;63.80;;;39.25;;
17858;SDS011;35426;30.698;104.050;2023-06-26T07:06:37;59.88;;;38.55;;
17858;SDS011;35426;30.698;104.050;2023-06-26T07:09:15;57.03;;;37.75;;
17858;SDS011;35426;30.698;104.050;2023-06-26T07:11:49;54.65;;;37.20;;
17858;SDS011;35426;30.698;104.050;2023-06-26T07:14:22;51.65;;;36.45;;
17858;SDS011;35426;30.698;104.050;2023-06-26T07:16:55;48.20;;;34.30;;
17858;SDS011;35426;30.698;104.050;2023-06-26T07:19:29;54.92;;;35.72;;
17858;SDS011;35426;30.698;104.050;2023-06-26T07:22:02;43.72;;;28.10;;
17858;SDS011;35426;30.698;104.050;2023-06-26T07:24:37;49.58;;;30.77;;
17858;SDS011;35426;30.698;104.050;2023-06-26T07:27:13;49.45;;;31.83;;
17858;SDS011;35426;30.698;104.050;2023-06-26T07:29:47;45.53;;;31.10;;
17858;SDS011;35426;30.698;104.050;2023-06-26T07:32:21;46.13;;;32.22;;
17858;SDS011;35426;30.698;104.050;2023-06-26T07:34:54;55.00;;;32.45;;
17858;SDS011;35426;30.698;104.050;2023-06-26T07:37:27;54.90;;;35.75;;
17858;SDS011;35426;30.698;104.050;2023-06-26T07:40:02;46.92;;;32.75;;
17858;SDS011;35426;30.698;104.050;2023-06-26T07:42:36;48.13;;;31.73;;
17858;SDS011;35426;30.698;104.050;2023-06-26T07:45:10;54.92;;;34.58;;
17858;SDS011;35426;30.698;104.050;2023-06-26T07:47:44;50.13;;;34.03;;
17858;SDS011;35426;30.698;104.050;2023-06-26T07:50:19;57.00;;;36.28;;
17858;SDS011;35426;30.698;104.050;2023-06-26T07:52:53;46.35;;;31.65;;
17858;SDS011;35426;30.698;104.050;2023-06-26T07:55:28;52.42;;;38.80;;
17858;SDS011;35426;30.698;104.050;2023-06-26T07:58:02;59.38;;;36.45;;
17858;SDS011;35426;30.698;104.050;2023-06-26T08:00:35;56.55;;;37.97;;
17858;SDS011;35426;30.698;104.050;2023-06-26T08:03:09;54.95;;;38.67;;
17858;SDS011;35426;30.698;104.050;2023-06-26T08:06:02;55.30;;;37.65;;
17858;SDS011;35426;30.698;104.050;2023-06-26T08:08:39;54.17;;;36.65;;
17858;SDS011;35426;30.698;104.050;2023-06-26T08:11:14;60.88;;;39.90;;
17858;SDS011;35426;30.698;104.050;2023-06-26T08:13:48;50.25;;;34.65;;
17858;SDS011;35426;30.698;104.050;2023-06-26T08:16:22;57.17;;;36.92;;
17858;SDS011;35426;30.698;104.050;2023-06-26T08:18:57;60.15;;;37.95;;
17858;SDS011;35426;30.698;104.050;2023-06-26T08:21:31;52.42;;;32.50;;
17858;SDS011;35426;30.698;104.050;2023-06-26T08:24:07;62.22;;;39.05;;
17858;SDS011;35426;30.698;104.050;2023-06-26T08:26:45;64.18;;;39.83;;
17858;SDS011;35426;30.698;104.050;2023-06-26T08:29:20;67.30;;;39.38;;
17858;SDS011;35426;30.698;104.050;2023-06-26T08:31:53;62.90;;;38.45;;
17858;SDS011;35426;30.698;104.050;2023-06-26T08:34:27;54.35;;;37.83;;
17858;SDS011;35426;30.698;104.050;2023-06-26T08:37:02;57.90;;;36.67;;
17858;SDS011;35426;30.698;104.050;2023-06-26T08:39:38;53.72;;;35.03;;
17858;SDS011;35426;30.698;104.050;2023-06-26T08:42:13;47.63;;;35.20;;
17858;SDS011;35426;30.698;104.050;2023-06-26T08:44:47;53.65;;;34.83;;
17858;SDS011;35426;30.698;104.050;2023-06-26T08:47:29;54.10;;;35.35;;
17858;SDS011;35426;30.698;104.050;2023-06-26T08:50:06;57.65;;;35.10;;
17858;SDS011;35426;30.698;104.050;2023-06-26T08:52:43;53.47;;;37.05;;
17858;SDS011;35426;30.698;104.050;2023-06-26T08:55:24;54.38;;;35.80;;
17858;SDS011;35426;30.698;104.050;2023-06-26T08:58:02;52.75;;;34.85;;
17858;SDS011;35426;30.698;104.050;2023-06-26T09:00:35;57.17;;;36.03;;
17858;SDS011;35426;30.698;104.050;2023-06-26T09:03:10;55.55;;;35.33;;
17858;SDS011;35426;30.698;104.050;2023-06-26T09:05:45;52.40;;;33.13;;
17858;SDS011;35426;30.698;104.050;2023-06-26T09:08:20;58.55;;;36.25;;
17858;SDS011;35426;30.698;104.050;2023-06-26T09:10:55;49.22;;;32.85;;
17858;SDS011;35426;30.698;104.050;2023-06-26T09:13:30;50.33;;;33.13;;
17858;SDS011;35426;30.698;104.050;2023-06-26T09:16:05;51.45;;;36.20;;
17858;SDS011;35426;30.698;104.050;2023-06-26T09:18:40;49.40;;;31.13;;
17858;SDS011;35426;30.698;104.050;2023-06-26T09:21:14;55.50;;;36.20;;
17858;SDS011;35426;30.698;104.050;2023-06-26T09:23:47;47.20;;;31.90;;
17858;SDS011;35426;30.698;104.050;2023-06-26T09:26:21;47.38;;;32.47;;
17858;SDS011;35426;30.698;104.050;2023-06-26T09:28:57;46.92;;;30.50;;
17858;SDS011;35426;30.698;104.050;2023-06-26T09:31:32;47.88;;;32.47;;
17858;SDS011;35426;30.698;104.050;2023-06-26T09:34:09;50.80;;;32.17;;
17858;SDS011;35426;30.698;104.050;2023-06-26T09:36:45;49.28;;;32.15;;
17858;SDS011;35426;30.698;104.050;2023-06-26T09:39:19;49.78;;;32.10;;
17858;SDS011;35426;30.698;104.050;2023-06-26T09:41:53;42.60;;;30.63;;
17858;SDS011;35426;30.698;104.050;2023-06-26T09:44:33;48.35;;;30.00;;
17858;SDS011;35426;30.698;104.050;2023-06-26T09:47:06;40.72;;;28.63;;
17858;SDS011;35426;30.698;104.050;2023-06-26T09:49:43;42.53;;;27.48;;
17858;SDS011;35426;30.698;104.050;2023-06-26T09:52:17;42.45;;;26.80;;
17858;SDS011;35426;30.698;104.050;2023-06-26T09:54:51;44.53;;;26.08;;
17858;SDS011;35426;30.698;104.050;2023-06-26T09:57:39;36.42;;;25.27;;
17858;SDS011;35426;30.698;104.050;2023-06-26T10:00:17;41.83;;;27.02;;
17858;SDS011;35426;30.698;104.050;2023-06-26T10:02:51;41.78;;;28.05;;
17858;SDS011;35426;30.698;104.050;2023-06-26T10:05:24;49.20;;;28.25;;
17858;SDS011;35426;30.698;104.050;2023-06-26T10:07:58;37.70;;;26.30;;
17858;SDS011;35426;30.698;104.050;2023-06-26T10:10:35;42.20;;;28.27;;
17858;SDS011;35426;30.698;104.050;2023-06-26T10:13:12;37.95;;;26.65;;
17858;SDS011;35426;30.698;104.050;2023-06-26T10:15:54;41.38;;;27.38;;
17858;SDS011;35426;30.698;104.050;2023-06-26T10:18:31;45.95;;;26.98;;
17858;SDS011;35426;30.698;104.050;2023-06-26T10:21:06;41.83;;;26.70;;
17858;SDS011;35426;30.698;104.050;2023-06-26T10:23:41;44.15;;;26.67;;
17858;SDS011;35426;30.698;104.050;2023-06-26T10:26:17;41.40;;;27.45;;
17858;SDS011;35426;30.698;104.050;2023-06-26T10:28:53;39.95;;;26.98;;
17858;SDS011;35426;30.698;104.050;2023-06-26T10:31:30;38.95;;;27.00;;
17858;SDS011;35426;30.698;104.050;2023-06-26T10:34:05;43.65;;;26.33;;
17858;SDS011;35426;30.698;104.050;2023-06-26T10:36:38;42.08;;;25.40;;
17858;SDS011;35426;30.698;104.050;2023-06-26T10:39:12;45.22;;;26.13;;
17858;SDS011;35426;30.698;104.050;2023-06-26T10:41:47;42.67;;;27.10;;
17858;SDS011;35426;30.698;104.050;2023-06-26T10:44:23;40.67;;;26.85;;
17858;SDS011;35426;30.698;104.050;2023-06-26T10:47:01;41.72;;;26.23;;
17858;SDS011;35426;30.698;104.050;2023-06-26T10:49:37;43.72;;;25.10;;
17858;SDS011;35426;30.698;104.050;2023-06-26T10:52:36;43.35;;;24.52;;
17858;SDS011;35426;30.698;104.050;2023-06-26T10:55:14;37.40;;;23.83;;
17858;SDS011;35426;30.698;104.050;2023-06-26T10:57:47;42.92;;;25.95;;
17858;SDS011;35426;30.698;104.050;2023-06-26T11:00:23;42.40;;;25.10;;
17858;SDS011;35426;30.698;104.050;2023-06-26T11:02:59;44.45;;;26.30;;
17858;SDS011;35426;30.698;104.050;2023-06-26T11:05:33;36.03;;;25.20;;
17858;SDS011;35426;30.698;104.050;2023-06-26T11:08:08;35.35;;;24.15;;
17858;SDS011;35426;30.698;104.050;2023-06-26T11:10:48;42.83;;;25.73;;
17858;SDS011;35426;30.698;104.050;2023-06-26T11:13:25;46.78;;;25.52;;
17858;SDS011;35426;30.698;104.050;2023-06-26T11:15:59;40.83;;;24.35;;
17858;SDS011;35426;30.698;104.050;2023-06-26T11:18:37;40.45;;;25.42;;
17858;SDS011;35426;30.698;104.050;2023-06-26T11:21:14;35.92;;;23.20;;
17858;SDS011;35426;30.698;104.050;2023-06-26T11:23:57;39.38;;;24.75;;
17858;SDS011;35426;30.698;104.050;2023-06-26T11:26:34;40.35;;;24.30;;
17858;SDS011;35426;30.698;104.050;2023-06-26T11:29:17;42.42;;;24.05;;
17858;SDS011;35426;30.698;104.050;2023-06-26T11:32:05;45.03;;;26.17;;
17858;SDS011;35426;30.698;104.050;2023-06-26T11:34:41;42.10;;;25.80;;
17858;SDS011;35426;30.698;104.050;2023-06-26T11:37:19;37.33;;;24.90;;
17858;SDS011;35426;30.698;104.050;2023-06-26T11:39:53;43.85;;;25.40;;
17858;SDS011;35426;30.698;104.050;2023-06-26T11:42:27;40.33;;;25.90;;
17858;SDS011;35426;30.698;104.050;2023-06-26T11:45:04;44.85;;;26.92;;
17858;SDS011;35426;30.698;104.050;2023-06-26T11:47:39;45.22;;;26.30;;
17858;SDS011;35426;30.698;104.050;2023-06-26T11:50:16;46.75;;;26.45;;
17858;SDS011;35426;30.698;104.050;2023-06-26T11:52:53;50.92;;;30.40;;
17858;SDS011;35426;30.698;104.050;2023-06-26T11:55:39;57.15;;;33.45;;
17858;SDS011;35426;30.698;104.050;2023-06-26T11:58:15;51.08;;;33.42;;
17858;SDS011;35426;30.698;104.050;2023-06-26T12:00:48;58.97;;;35.38;;
17858;SDS011;35426;30.698;104.050;2023-06-26T12:03:21;57.65;;;36.13;;
17858;SDS011;35426;30.698;104.050;2023-06-26T12:05:58;56.75;;;35.85;;
17858;SDS011;35426;30.698;104.050;2023-06-26T12:08:35;62.25;;;38.25;;
17858;SDS011;35426;30.698;104.050;2023-06-26T12:11:10;56.88;;;38.42;;
17858;SDS011;35426;30.698;104.050;2023-06-26T12:13:45;54.85;;;37.20;;
17858;SDS011;35426;30.698;104.050;2023-06-26T12:16:20;59.30;;;39.10;;
17858;SDS011;35426;30.698;104.050;2023-06-26T12:18:58;61.78;;;42.13;;
17858;SDS011;35426;30.698;104.050;2023-06-26T12:21:48;64.25;;;41.45;;
17858;SDS011;35426;30.698;104.050;2023-06-26T12:24:22;61.92;;;42.42;;
17858;SDS011;35426;30.698;104.050;2023-06-26T12:26:56;66.65;;;44.72;;
17858;SDS011;35426;30.698;104.050;2023-06-26T12:29:31;69.47;;;45.05;;
17858;SDS011;35426;30.698;104.050;2023-06-26T12:32:07;65.53;;;44.15;;
17858;SDS011;35426;30.698;104.050;2023-06-26T12:34:41;72.53;;;48.15;;
17858;SDS011;35426;30.698;104.050;2023-06-26T12:37:21;73.40;;;48.85;;
17858;SDS011;35426;30.698;104.050;2023-06-26T12:39:54;77.53;;;48.45;;
17858;SDS011;35426;30.698;104.050;2023-06-26T12:42:32;73.25;;;46.72;;
17858;SDS011;35426;30.698;104.050;2023-06-26T12:45:10;74.78;;;48.47;;
17858;SDS011;35426;30.698;104.050;2023-06-26T12:48:07;73.30;;;47.17;;
17858;SDS011;35426;30.698;104.050;2023-06-26T12:50:43;82.47;;;51.53;;
17858;SDS011;35426;30.698;104.050;2023-06-26T12:53:20;78.05;;;49.67;;
17858;SDS011;35426;30.698;104.050;2023-06-26T12:55:54;75.60;;;49.22;;
17858;SDS011;35426;30.698;104.050;2023-06-26T12:58:28;73.47;;;50.70;;
17858;SDS011;35426;30.698;104.050;2023-06-26T13:01:03;76.10;;;51.00;;
17858;SDS011;35426;30.698;104.050;2023-06-26T13:03:47;75.35;;;50.70;;
17858;SDS011;35426;30.698;104.050;2023-06-26T13:06:21;83.25;;;52.28;;
17858;SDS011;35426;30.698;104.050;2023-06-26T13:08:58;76.65;;;50.80;;
17858;SDS011;35426;30.698;104.050;2023-06-26T13:11:33;75.30;;;50.50;;
17858;SDS011;35426;30.698;104.050;2023-06-26T13:14:11;72.97;;;50.08;;
17858;SDS011;35426;30.698;104.050;2023-06-26T13:16:45;80.65;;;50.03;;
17858;SDS011;35426;30.698;104.050;2023-06-26T13:19:19;88.22;;;52.83;;
17858;SDS011;35426;30.698;104.050;2023-06-26T13:21:55;79.43;;;51.88;;
17858;SDS011;35426;30.698;104.050;2023-06-26T13:24:30;83.40;;;50.63;;
17858;SDS011;35426;30.698;104.050;2023-06-26T13:27:03;72.15;;;50.70;;
17858;SDS011;35426;30.698;104.050;2023-06-26T13:29:36;71.15;;;49.63;;
17858;SDS011;35426;30.698;104.050;2023-06-26T13:32:11;74.28;;;49.53;;
17858;SDS011;35426;30.698;104.050;2023-06-26T13:34:45;72.65;;;49.53;;
17858;SDS011;35426;30.698;104.050;2023-06-26T13:37:19;78.38;;;51.33;;
17858;SDS011;35426;30.698;104.050;2023-06-26T13:39:56;73.75;;;51.17;;
17858;SDS011;35426;30.698;104.050;2023-06-26T13:42:34;77.63;;;51.08;;
17858;SDS011;35426;30.698;104.050;2023-06-26T13:45:09;79.65;;;51.33;;
17858;SDS011;35426;30.698;104.050;2023-06-26T13:47:58;85.47;;;52.03;;
17858;SDS011;35426;30.698;104.050;2023-06-26T13:50:33;80.40;;;52.97;;
17858;SDS011;35426;30.698;104.050;2023-06-26T13:53:21;77.80;;;52.22;;
17858;SDS011;35426;30.698;104.050;2023-06-26T13:56:00;87.78;;;56.00;;
17858;SDS011;35426;30.698;104.050;2023-06-26T13:58:35;81.78;;;51.88;;
17858;SDS011;35426;30.698;104.050;2023-06-26T14:01:09;80.45;;;54.67;;
17858;SDS011;35426;30.698;104.050;2023-06-26T14:03:51;88.25;;;55.13;;
17858;SDS011;35426;30.698;104.050;2023-06-26T14:06:27;85.53;;;57.27;;
17858;SDS011;35426;30.698;104.050;2023-06-26T14:09:01;90.72;;;58.17;;
17858;SDS011;35426;30.698;104.050;2023-06-26T14:11:39;89.97;;;56.60;;
17858;SDS011;35426;30.698;104.050;2023-06-26T14:14:14;83.60;;;56.85;;
17858;SDS011;35426;30.698;104.050;2023-06-26T14:16:47;95.80;;;57.88;;
17858;SDS011;35426;30.698;104.050;2023-06-26T14:19:27;88.78;;;55.83;;
17858;SDS011;35426;30.698;104.050;2023-06-26T14:22:01;81.27;;;56.23;;
17858;SDS011;35426;30.698;104.050;2023-06-26T14:24:34;92.20;;;56.38;;
17858;SDS011;35426;30.698;104.050;2023-06-26T14:27:13;91.45;;;58.67;;
17858;SDS011;35426;30.698;104.050;2023-06-26T14:29:46;91.63;;;56.90;;
17858;SDS011;35426;30.698;104.050;2023-06-26T14:32:25;86.25;;;57.50;;
17858;SDS011;35426;30.698;104.050;2023-06-26T14:34:59;87.75;;;58.10;;
17858;SDS011;35426;30.698;104.050;2023-06-26T14:37:35;90.00;;;57.15;;
17858;SDS011;35426;30.698;104.050;2023-06-26T14:40:11;89.28;;;58.42;;
17858;SDS011;35426;30.698;104.050;2023-06-26T14:42:49;81.63;;;53.88;;
17858;SDS011;35426;30.698;104.050;2023-06-26T14:45:23;86.65;;;55.60;;